sensor_id;sensor_type;location;lat;lon;timestamp;P1;durP1;ratioP1;P2;durP2;ratioP2
55350;SDS011;62194;49.480;10.986;2023-04-25T00:00:04;5.88;;;3.65;;
55350;SDS011;62194;49.480;10.986;2023-04-25T00:00:11;5.94;;;3.58;;
55350;SDS011;62194;49.480;10.986;2023-04-25T00:00:17;6.23;;;3.63;;
55350;SDS011;62194;49.480;10.986;2023-04-25T00:00:23;5.90;;;3.50;;
55350;SDS011;62194;49.480;10.986;2023-04-25T00:00:28;4.97;;;3.50;;
55350;SDS011;62194;49.480;10.986;2023-04-25T00:00:34;4.50;;;3.58;;
55350;SDS011;62194;49.480;10.986;2023-04-25T00:00:39;4.17;;;3.60;;
55350;SDS011;62194;49.480;10.986;2023-04-25T00:00:44;4.07;;;3.63;;
55350;SDS011;62194;49.480;10.986;2023-04-25T00:00:50;4.20;;;3.80;;
55350;SDS011;62194;49.480;10.986;2023-04-25T00:00:57;4.67;;;3.90;;
55350;SDS011;62194;49.480;10.986;2023-04-25T00:01:03;4.90;;;3.90;;
55350;SDS011;62194;49.480;10.986;2023-04-25T00:01:09;4.93;;;3.93;;
55350;SDS011;62194;49.480;10.986;2023-04-25T00:01:17;5.15;;;3.98;;
55350;SDS011;62194;49.480;10.986;2023-04-25T00:01:23;5.78;;;3.95;;
55350;SDS011;62194;49.480;10.986;2023-04-25T00:01:29;5.55;;;4.00;;
55350;SDS011;62194;49.480;10.986;2023-04-25T00:01:34;6.03;;;3.93;;
55350;SDS011;62194;49.480;10.986;2023-04-25T00:01:41;5.70;;;3.87;;
55350;SDS011;62194;49.480;10.986;2023-04-25T00:01:46;5.80;;;3.85;;
55350;SDS011;62194;49.480;10.986;2023-04-25T00:01:51;5.50;;;3.90;;
55350;SDS011;62194;49.480;10.986;2023-04-25T00:01:57;5.13;;;3.72;;
55350;SDS011;62194;49.480;10.986;2023-04-25T00:02:02;4.47;;;3.70;;
55350;SDS011;62194;49.480;10.986;2023-04-25T00:02:08;4.43;;;3.80;;
55350;SDS011;62194;49.480;10.986;2023-04-25T00:02:13;4.30;;;3.83;;
55350;SDS011;62194;49.480;10.986;2023-04-25T00:02:19;4.17;;;3.70;;
55350;SDS011;62194;49.480;10.986;2023-04-25T00:02:25;4.33;;;3.93;;
55350;SDS011;62194;49.480;10.986;2023-04-25T00:02:30;4.30;;;3.90;;
55350;SDS011;62194;49.480;10.986;2023-04-25T00:02:37;4.33;;;3.93;;
55350;SDS011;62194;49.480;10.986;2023-04-25T00:02:42;4.30;;;3.90;;
55350;SDS011;62194;49.480;10.986;2023-04-25T00:02:47;4.20;;;3.80;;
55350;SDS011;62194;49.480;10.986;2023-04-25T00:02:53;4.17;;;3.60;;
55350;SDS011;62194;49.480;10.986;2023-04-25T00:02:58;4.33;;;3.50;;
55350;SDS011;62194;49.480;10.986;2023-04-25T00:03:04;4.70;;;3.60;;
55350;SDS011;62194;49.480;10.986;2023-04-25T00:03:11;4.67;;;3.50;;
55350;SDS011;62194;49.480;10.986;2023-04-25T00:03:16;4.87;;;3.57;;
55350;SDS011;62194;49.480;10.986;2023-04-25T00:03:23;4.88;;;3.46;;
55350;SDS011;62194;49.480;10.986;2023-04-25T00:03:30;4.70;;;3.56;;
55350;SDS011;62194;49.480;10.986;2023-04-25T00:03:36;4.50;;;3.50;;
55350;SDS011;62194;49.480;10.986;2023-04-25T00:03:42;4.73;;;3.50;;
55350;SDS011;62194;49.480;10.986;2023-04-25T00:03:48;4.57;;;3.60;;
55350;SDS011;62194;49.480;10.986;2023-04-25T00:03:53;5.00;;;3.80;;
55350;SDS011;62194;49.480;10.986;2023-04-25T00:03:59;4.90;;;3.73;;
55350;SDS011;62194;49.480;10.986;2023-04-25T00:04:06;4.77;;;3.70;;
55350;SDS011;62194;49.480;10.986;2023-04-25T00:04:12;4.57;;;3.78;;
55350;SDS011;62194;49.480;10.986;2023-04-25T00:04:18;4.53;;;3.75;;
55350;SDS011;62194;49.480;10.986;2023-04-25T00:04:23;4.40;;;3.77;;
55350;SDS011;62194;49.480;10.986;2023-04-25T00:04:28;4.30;;;3.70;;
55350;SDS011;62194;49.480;10.986;2023-04-25T00:04:34;4.47;;;3.70;;
55350;SDS011;62194;49.480;10.986;2023-04-25T00:04:39;4.70;;;3.63;;
55350;SDS011;62194;49.480;10.986;2023-04-25T00:04:45;4.83;;;3.70;;
55350;SDS011;62194;49.480;10.986;2023-04-25T00:04:51;4.68;;;3.50;;
55350;SDS011;62194;49.480;10.986;2023-04-25T00:04:56;4.38;;;3.45;;
55350;SDS011;62194;49.480;10.986;2023-04-25T00:05:03;4.55;;;3.50;;
55350;SDS011;62194;49.480;10.986;2023-04-25T00:05:09;4.22;;;3.60;;
55350;SDS011;62194;49.480;10.986;2023-04-25T00:05:15;4.05;;;3.65;;
55350;SDS011;62194;49.480;10.986;2023-04-25T00:05:22;4.20;;;3.80;;
55350;SDS011;62194;49.480;10.986;2023-04-25T00:05:28;4.13;;;3.72;;
55350;SDS011;62194;49.480;10.986;2023-04-25T00:05:34;4.30;;;3.70;;
55350;SDS011;62194;49.480;10.986;2023-04-25T00:05:41;4.62;;;3.62;;
55350;SDS011;62194;49.480;10.986;2023-04-25T00:05:47;4.63;;;3.58;;
55350;SDS011;62194;49.480;10.986;2023-04-25T00:05:53;5.47;;;3.53;;
55350;SDS011;62194;49.480;10.986;2023-04-25T00:06:01;5.37;;;3.60;;
55350;SDS011;62194;49.480;10.986;2023-04-25T00:06:09;5.02;;;3.57;;
55350;SDS011;62194;49.480;10.986;2023-04-25T00:06:15;4.77;;;3.50;;
55350;SDS011;62194;49.480;10.986;2023-04-25T00:06:20;5.20;;;3.58;;
55350;SDS011;62194;49.480;10.986;2023-04-25T00:06:25;4.67;;;3.63;;
55350;SDS011;62194;49.480;10.986;2023-04-25T00:06:31;4.85;;;3.65;;
55350;SDS011;62194;49.480;10.986;2023-04-25T00:06:37;4.95;;;3.60;;
55350;SDS011;62194;49.480;10.986;2023-04-25T00:06:43;5.00;;;3.63;;
55350;SDS011;62194;49.480;10.986;2023-04-25T00:06:48;4.90;;;3.70;;
55350;SDS011;62194;49.480;10.986;2023-04-25T00:06:53;5.00;;;3.57;;
55350;SDS011;62194;49.480;10.986;2023-04-25T00:06:59;5.18;;;3.50;;
55350;SDS011;62194;49.480;10.986;2023-04-25T00:07:07;5.30;;;3.53;;
55350;SDS011;62194;49.480;10.986;2023-04-25T00:07:13;5.25;;;3.50;;
55350;SDS011;62194;49.480;10.986;2023-04-25T00:07:18;4.97;;;3.40;;
55350;SDS011;62194;49.480;10.986;2023-04-25T00:07:25;4.30;;;3.42;;
55350;SDS011;62194;49.480;10.986;2023-04-25T00:07:30;4.40;;;3.47;;
55350;SDS011;62194;49.480;10.986;2023-04-25T00:07:37;4.40;;;3.40;;
55350;SDS011;62194;49.480;10.986;2023-04-25T00:07:42;4.65;;;3.50;;
55350;SDS011;62194;49.480;10.986;2023-04-25T00:07:47;4.70;;;3.60;;
55350;SDS011;62194;49.480;10.986;2023-04-25T00:07:53;4.93;;;3.73;;
55350;SDS011;62194;49.480;10.986;2023-04-25T00:07:58;4.80;;;3.75;;
55350;SDS011;62194;49.480;10.986;2023-04-25T00:08:03;4.27;;;3.80;;
55350;SDS011;62194;49.480;10.986;2023-04-25T00:08:09;5.13;;;3.88;;
55350;SDS011;62194;49.480;10.986;2023-04-25T00:08:14;5.23;;;3.87;;
55350;SDS011;62194;49.480;10.986;2023-04-25T00:08:20;5.32;;;3.95;;
55350;SDS011;62194;49.480;10.986;2023-04-25T00:08:25;5.93;;;3.83;;
55350;SDS011;62194;49.480;10.986;2023-04-25T00:08:31;5.97;;;3.80;;
55350;SDS011;62194;49.480;10.986;2023-04-25T00:08:36;6.23;;;3.70;;
55350;SDS011;62194;49.480;10.986;2023-04-25T00:08:41;5.53;;;3.77;;
55350;SDS011;62194;49.480;10.986;2023-04-25T00:08:47;5.60;;;3.80;;
55350;SDS011;62194;49.480;10.986;2023-04-25T00:08:52;5.93;;;3.72;;
55350;SDS011;62194;49.480;10.986;2023-04-25T00:08:58;5.82;;;3.95;;
55350;SDS011;62194;49.480;10.986;2023-04-25T00:09:04;5.78;;;4.00;;
55350;SDS011;62194;49.480;10.986;2023-04-25T00:09:12;5.62;;;3.93;;
55350;SDS011;62194;49.480;10.986;2023-04-25T00:09:17;5.90;;;3.90;;
55350;SDS011;62194;49.480;10.986;2023-04-25T00:09:23;5.00;;;3.70;;
55350;SDS011;62194;49.480;10.986;2023-04-25T00:09:28;4.70;;;3.70;;
55350;SDS011;62194;49.480;10.986;2023-04-25T00:09:33;4.57;;;3.70;;
55350;SDS011;62194;49.480;10.986;2023-04-25T00:09:38;4.20;;;3.63;;
55350;SDS011;62194;49.480;10.986;2023-04-25T00:09:44;4.00;;;3.60;;
55350;SDS011;62194;49.480;10.986;2023-04-25T00:09:50;4.18;;;3.75;;
55350;SDS011;62194;49.480;10.986;2023-04-25T00:09:55;4.20;;;3.73;;
55350;SDS011;62194;49.480;10.986;2023-04-25T00:10:01;4.30;;;3.70;;
55350;SDS011;62194;49.480;10.986;2023-04-25T00:10:07;4.22;;;3.63;;
55350;SDS011;62194;49.480;10.986;2023-04-25T00:10:13;4.73;;;3.70;;
55350;SDS011;62194;49.480;10.986;2023-04-25T00:10:19;4.93;;;3.63;;
55350;SDS011;62194;49.480;10.986;2023-04-25T00:10:25;4.97;;;3.63;;
55350;SDS011;62194;49.480;10.986;2023-04-25T00:10:30;4.87;;;3.63;;
55350;SDS011;62194;49.480;10.986;2023-04-25T00:10:36;4.88;;;3.63;;
55350;SDS011;62194;49.480;10.986;2023-04-25T00:10:41;4.67;;;3.63;;
55350;SDS011;62194;49.480;10.986;2023-04-25T00:10:46;4.18;;;3.50;;
55350;SDS011;62194;49.480;10.986;2023-04-25T00:10:53;4.07;;;3.55;;
55350;SDS011;62194;49.480;10.986;2023-04-25T00:10:58;4.43;;;3.55;;
55350;SDS011;62194;49.480;10.986;2023-04-25T00:11:04;4.90;;;3.70;;
55350;SDS011;62194;49.480;10.986;2023-04-25T00:11:09;4.95;;;3.65;;
55350;SDS011;62194;49.480;10.986;2023-04-25T00:11:15;5.00;;;3.70;;
55350;SDS011;62194;49.480;10.986;2023-04-25T00:11:20;5.43;;;3.80;;
55350;SDS011;62194;49.480;10.986;2023-04-25T00:11:25;5.45;;;3.72;;
55350;SDS011;62194;49.480;10.986;2023-04-25T00:11:30;5.00;;;3.67;;
55350;SDS011;62194;49.480;10.986;2023-04-25T00:11:36;4.83;;;3.50;;
55350;SDS011;62194;49.480;10.986;2023-04-25T00:11:42;4.47;;;3.42;;
55350;SDS011;62194;49.480;10.986;2023-04-25T00:11:48;4.15;;;3.30;;
55350;SDS011;62194;49.480;10.986;2023-04-25T00:11:53;4.00;;;3.27;;
55350;SDS011;62194;49.480;10.986;2023-04-25T00:11:58;4.72;;;3.28;;
55350;SDS011;62194;49.480;10.986;2023-04-25T00:12:04;4.83;;;3.37;;
55350;SDS011;62194;49.480;10.986;2023-04-25T00:12:09;5.47;;;3.53;;
55350;SDS011;62194;49.480;10.986;2023-04-25T00:12:14;6.05;;;3.67;;
55350;SDS011;62194;49.480;10.986;2023-04-25T00:12:20;6.35;;;3.70;;
55350;SDS011;62194;49.480;10.986;2023-04-25T00:12:27;5.60;;;3.80;;
55350;SDS011;62194;49.480;10.986;2023-04-25T00:12:35;5.53;;;3.70;;
55350;SDS011;62194;49.480;10.986;2023-04-25T00:12:41;5.07;;;3.63;;
55350;SDS011;62194;49.480;10.986;2023-04-25T00:12:46;4.75;;;3.72;;
55350;SDS011;62194;49.480;10.986;2023-04-25T00:12:52;4.50;;;3.70;;
55350;SDS011;62194;49.480;10.986;2023-04-25T00:12:58;4.47;;;3.63;;
55350;SDS011;62194;49.480;10.986;2023-04-25T00:13:03;4.60;;;3.70;;
55350;SDS011;62194;49.480;10.986;2023-04-25T00:13:09;4.30;;;3.55;;
55350;SDS011;62194;49.480;10.986;2023-04-25T00:13:16;4.27;;;3.33;;
55350;SDS011;62194;49.480;10.986;2023-04-25T00:13:22;4.20;;;3.30;;
55350;SDS011;62194;49.480;10.986;2023-04-25T00:13:28;4.30;;;3.40;;
55350;SDS011;62194;49.480;10.986;2023-04-25T00:13:33;4.13;;;3.28;;
55350;SDS011;62194;49.480;10.986;2023-04-25T00:13:39;4.20;;;3.30;;
55350;SDS011;62194;49.480;10.986;2023-04-25T00:13:46;3.93;;;3.37;;
55350;SDS011;62194;49.480;10.986;2023-04-25T00:13:53;4.47;;;3.40;;
55350;SDS011;62194;49.480;10.986;2023-04-25T00:13:59;5.25;;;3.28;;
55350;SDS011;62194;49.480;10.986;2023-04-25T00:14:06;6.00;;;3.43;;
55350;SDS011;62194;49.480;10.986;2023-04-25T00:14:12;6.13;;;3.50;;
55350;SDS011;62194;49.480;10.986;2023-04-25T00:14:18;6.07;;;3.58;;
55350;SDS011;62194;49.480;10.986;2023-04-25T00:14:23;5.03;;;3.53;;
55350;SDS011;62194;49.480;10.986;2023-04-25T00:14:29;4.43;;;3.57;;
55350;SDS011;62194;49.480;10.986;2023-04-25T00:14:35;3.94;;;3.50;;
55350;SDS011;62194;49.480;10.986;2023-04-25T00:14:40;3.80;;;3.40;;
55350;SDS011;62194;49.480;10.986;2023-04-25T00:14:45;3.97;;;3.57;;
55350;SDS011;62194;49.480;10.986;2023-04-25T00:14:51;4.03;;;3.53;;
55350;SDS011;62194;49.480;10.986;2023-04-25T00:14:57;4.13;;;3.58;;
55350;SDS011;62194;49.480;10.986;2023-04-25T00:15:03;4.23;;;3.60;;
55350;SDS011;62194;49.480;10.986;2023-04-25T00:15:08;4.20;;;3.60;;
55350;SDS011;62194;49.480;10.986;2023-04-25T00:15:14;3.92;;;3.42;;
55350;SDS011;62194;49.480;10.986;2023-04-25T00:15:20;3.70;;;3.30;;
55350;SDS011;62194;49.480;10.986;2023-04-25T00:15:25;3.75;;;3.30;;
55350;SDS011;62194;49.480;10.986;2023-04-25T00:15:30;3.73;;;3.20;;
55350;SDS011;62194;49.480;10.986;2023-04-25T00:15:36;3.78;;;3.28;;
55350;SDS011;62194;49.480;10.986;2023-04-25T00:15:43;3.90;;;3.28;;
55350;SDS011;62194;49.480;10.986;2023-04-25T00:15:49;3.93;;;3.37;;
55350;SDS011;62194;49.480;10.986;2023-04-25T00:15:55;4.05;;;3.40;;
55350;SDS011;62194;49.480;10.986;2023-04-25T00:16:01;3.93;;;3.40;;
55350;SDS011;62194;49.480;10.986;2023-04-25T00:16:07;3.80;;;3.40;;
55350;SDS011;62194;49.480;10.986;2023-04-25T00:16:12;3.63;;;3.27;;
55350;SDS011;62194;49.480;10.986;2023-04-25T00:16:20;3.70;;;3.25;;
55350;SDS011;62194;49.480;10.986;2023-04-25T00:16:25;3.93;;;3.23;;
55350;SDS011;62194;49.480;10.986;2023-04-25T00:16:32;3.97;;;3.30;;
55350;SDS011;62194;49.480;10.986;2023-04-25T00:16:38;4.30;;;3.30;;
55350;SDS011;62194;49.480;10.986;2023-04-25T00:16:43;4.70;;;3.30;;
55350;SDS011;62194;49.480;10.986;2023-04-25T00:16:49;4.77;;;3.30;;
55350;SDS011;62194;49.480;10.986;2023-04-25T00:16:56;4.17;;;3.13;;
55350;SDS011;62194;49.480;10.986;2023-04-25T00:17:02;4.03;;;3.10;;
55350;SDS011;62194;49.480;10.986;2023-04-25T00:17:09;4.00;;;3.10;;
55350;SDS011;62194;49.480;10.986;2023-04-25T00:17:14;3.50;;;3.10;;
55350;SDS011;62194;49.480;10.986;2023-04-25T00:17:20;3.58;;;3.17;;
55350;SDS011;62194;49.480;10.986;2023-04-25T00:17:25;3.77;;;3.23;;
55350;SDS011;62194;49.480;10.986;2023-04-25T00:17:31;4.47;;;3.33;;
55350;SDS011;62194;49.480;10.986;2023-04-25T00:17:37;4.70;;;3.40;;
55350;SDS011;62194;49.480;10.986;2023-04-25T00:17:43;5.15;;;3.40;;
55350;SDS011;62194;49.480;10.986;2023-04-25T00:17:50;4.98;;;3.32;;
55350;SDS011;62194;49.480;10.986;2023-04-25T00:17:57;4.65;;;3.20;;
55350;SDS011;62194;49.480;10.986;2023-04-25T00:18:03;4.00;;;3.10;;
55350;SDS011;62194;49.480;10.986;2023-04-25T00:18:08;3.97;;;3.20;;
55350;SDS011;62194;49.480;10.986;2023-04-25T00:18:14;3.70;;;3.10;;
55350;SDS011;62194;49.480;10.986;2023-04-25T00:18:19;3.73;;;3.20;;
55350;SDS011;62194;49.480;10.986;2023-04-25T00:18:25;4.00;;;3.30;;
55350;SDS011;62194;49.480;10.986;2023-04-25T00:18:33;3.86;;;3.26;;
55350;SDS011;62194;49.480;10.986;2023-04-25T00:18:39;3.45;;;3.03;;
55350;SDS011;62194;49.480;10.986;2023-04-25T00:18:45;3.83;;;3.00;;
55350;SDS011;62194;49.480;10.986;2023-04-25T00:18:56;3.93;;;3.10;;
55350;SDS011;62194;49.480;10.986;2023-04-25T00:19:01;4.00;;;3.20;;
55350;SDS011;62194;49.480;10.986;2023-04-25T00:19:07;4.20;;;3.37;;
55350;SDS011;62194;49.480;10.986;2023-04-25T00:19:12;4.28;;;3.45;;
55350;SDS011;62194;49.480;10.986;2023-04-25T00:19:18;4.25;;;3.38;;
55350;SDS011;62194;49.480;10.986;2023-04-25T00:19:23;4.33;;;3.27;;
55350;SDS011;62194;49.480;10.986;2023-04-25T00:19:29;4.35;;;3.22;;
55350;SDS011;62194;49.480;10.986;2023-04-25T00:19:35;4.33;;;3.17;;
55350;SDS011;62194;49.480;10.986;2023-04-25T00:19:42;3.87;;;3.00;;
55350;SDS011;62194;49.480;10.986;2023-04-25T00:19:49;3.44;;;3.00;;
55350;SDS011;62194;49.480;10.986;2023-04-25T00:19:55;3.27;;;2.97;;
55350;SDS011;62194;49.480;10.986;2023-04-25T00:20:01;3.30;;;3.00;;
55350;SDS011;62194;49.480;10.986;2023-04-25T00:20:10;3.57;;;2.96;;
55350;SDS011;62194;49.480;10.986;2023-04-25T00:20:15;4.47;;;3.03;;
55350;SDS011;62194;49.480;10.986;2023-04-25T00:20:21;4.90;;;3.07;;
55350;SDS011;62194;49.480;10.986;2023-04-25T00:20:28;4.97;;;3.00;;
55350;SDS011;62194;49.480;10.986;2023-04-25T00:20:35;5.00;;;3.10;;
55350;SDS011;62194;49.480;10.986;2023-04-25T00:20:40;4.45;;;3.03;;
55350;SDS011;62194;49.480;10.986;2023-04-25T00:20:49;3.70;;;3.13;;
55350;SDS011;62194;49.480;10.986;2023-04-25T00:20:55;3.73;;;3.17;;
55350;SDS011;62194;49.480;10.986;2023-04-25T00:21:00;3.72;;;3.22;;
55350;SDS011;62194;49.480;10.986;2023-04-25T00:21:06;3.53;;;3.20;;
55350;SDS011;62194;49.480;10.986;2023-04-25T00:21:11;3.58;;;3.08;;
55350;SDS011;62194;49.480;10.986;2023-04-25T00:21:20;3.57;;;3.00;;
55350;SDS011;62194;49.480;10.986;2023-04-25T00:21:25;3.60;;;3.00;;
55350;SDS011;62194;49.480;10.986;2023-04-25T00:21:31;3.88;;;3.10;;
55350;SDS011;62194;49.480;10.986;2023-04-25T00:21:36;4.17;;;3.07;;
55350;SDS011;62194;49.480;10.986;2023-04-25T00:21:45;4.19;;;3.09;;
55350;SDS011;62194;49.480;10.986;2023-04-25T00:21:51;4.73;;;3.27;;
55350;SDS011;62194;49.480;10.986;2023-04-25T00:21:56;4.75;;;3.20;;
55350;SDS011;62194;49.480;10.986;2023-04-25T00:22:02;4.68;;;3.15;;
55350;SDS011;62194;49.480;10.986;2023-04-25T00:22:08;4.70;;;3.27;;
55350;SDS011;62194;49.480;10.986;2023-04-25T00:22:16;4.69;;;3.39;;
55350;SDS011;62194;49.480;10.986;2023-04-25T00:22:22;4.45;;;3.30;;
55350;SDS011;62194;49.480;10.986;2023-04-25T00:22:27;4.30;;;3.40;;
55350;SDS011;62194;49.480;10.986;2023-04-25T00:22:33;4.80;;;3.53;;
55350;SDS011;62194;49.480;10.986;2023-04-25T00:22:39;4.66;;;3.50;;
55350;SDS011;62194;49.480;10.986;2023-04-25T00:22:44;4.67;;;3.47;;
55350;SDS011;62194;49.480;10.986;2023-04-25T00:22:50;4.65;;;3.53;;
55350;SDS011;62194;49.480;10.986;2023-04-25T00:23:00;4.40;;;3.40;;
55350;SDS011;62194;49.480;10.986;2023-04-25T00:23:05;3.80;;;3.20;;
55350;SDS011;62194;49.480;10.986;2023-04-25T00:23:11;3.90;;;3.20;;
55350;SDS011;62194;49.480;10.986;2023-04-25T00:23:16;3.70;;;3.20;;
55350;SDS011;62194;49.480;10.986;2023-04-25T00:23:24;3.77;;;3.30;;
55350;SDS011;62194;49.480;10.986;2023-04-25T00:23:30;3.58;;;3.17;;
55350;SDS011;62194;49.480;10.986;2023-04-25T00:23:35;3.57;;;3.20;;
55350;SDS011;62194;49.480;10.986;2023-04-25T00:23:41;3.70;;;3.30;;
55350;SDS011;62194;49.480;10.986;2023-04-25T00:23:46;3.77;;;3.30;;
55350;SDS011;62194;49.480;10.986;2023-04-25T00:23:52;4.43;;;3.30;;
55350;SDS011;62194;49.480;10.986;2023-04-25T00:23:58;4.57;;;3.30;;
55350;SDS011;62194;49.480;10.986;2023-04-25T00:24:04;4.82;;;3.47;;
55350;SDS011;62194;49.480;10.986;2023-04-25T00:24:09;4.83;;;3.40;;
55350;SDS011;62194;49.480;10.986;2023-04-25T00:24:14;4.67;;;3.40;;
55350;SDS011;62194;49.480;10.986;2023-04-25T00:24:20;3.85;;;3.25;;
55350;SDS011;62194;49.480;10.986;2023-04-25T00:24:25;3.63;;;3.20;;
55350;SDS011;62194;49.480;10.986;2023-04-25T00:24:30;3.72;;;3.22;;
55350;SDS011;62194;49.480;10.986;2023-04-25T00:24:36;3.53;;;3.07;;
55350;SDS011;62194;49.480;10.986;2023-04-25T00:24:41;3.70;;;2.97;;
55350;SDS011;62194;49.480;10.986;2023-04-25T00:24:46;3.88;;;3.03;;
55350;SDS011;62194;49.480;10.986;2023-04-25T00:24:52;3.90;;;3.03;;
55350;SDS011;62194;49.480;10.986;2023-04-25T00:24:58;3.87;;;3.10;;
55350;SDS011;62194;49.480;10.986;2023-04-25T00:25:05;3.54;;;3.10;;
55350;SDS011;62194;49.480;10.986;2023-04-25T00:25:11;3.67;;;3.27;;
55350;SDS011;62194;49.480;10.986;2023-04-25T00:25:16;3.67;;;3.30;;
55350;SDS011;62194;49.480;10.986;2023-04-25T00:25:22;3.70;;;3.30;;
55350;SDS011;62194;49.480;10.986;2023-04-25T00:25:27;4.10;;;3.10;;
55350;SDS011;62194;49.480;10.986;2023-04-25T00:25:32;4.63;;;3.33;;
55350;SDS011;62194;49.480;10.986;2023-04-25T00:25:37;4.65;;;3.30;;
55350;SDS011;62194;49.480;10.986;2023-04-25T00:25:45;4.43;;;3.10;;
55350;SDS011;62194;49.480;10.986;2023-04-25T00:25:54;4.18;;;3.05;;
55350;SDS011;62194;49.480;10.986;2023-04-25T00:26:00;3.87;;;3.03;;
55350;SDS011;62194;49.480;10.986;2023-04-25T00:26:05;3.57;;;2.90;;
55350;SDS011;62194;49.480;10.986;2023-04-25T00:26:10;3.57;;;2.83;;
55350;SDS011;62194;49.480;10.986;2023-04-25T00:26:15;3.67;;;2.90;;
55350;SDS011;62194;49.480;10.986;2023-04-25T00:26:21;4.00;;;2.90;;
55350;SDS011;62194;49.480;10.986;2023-04-25T00:26:26;3.43;;;2.77;;
55350;SDS011;62194;49.480;10.986;2023-04-25T00:26:33;3.40;;;2.75;;
55350;SDS011;62194;49.480;10.986;2023-04-25T00:26:38;4.37;;;2.90;;
55350;SDS011;62194;49.480;10.986;2023-04-25T00:26:44;4.97;;;3.07;;
55350;SDS011;62194;49.480;10.986;2023-04-25T00:26:49;5.47;;;3.28;;
55350;SDS011;62194;49.480;10.986;2023-04-25T00:26:55;5.53;;;3.57;;
55350;SDS011;62194;49.480;10.986;2023-04-25T00:27:00;5.78;;;3.60;;
55350;SDS011;62194;49.480;10.986;2023-04-25T00:27:05;5.63;;;3.70;;
55350;SDS011;62194;49.480;10.986;2023-04-25T00:27:11;4.97;;;3.70;;
55350;SDS011;62194;49.480;10.986;2023-04-25T00:27:16;4.10;;;3.67;;
55350;SDS011;62194;49.480;10.986;2023-04-25T00:27:21;4.00;;;3.40;;
55350;SDS011;62194;49.480;10.986;2023-04-25T00:27:26;3.90;;;3.40;;
55350;SDS011;62194;49.480;10.986;2023-04-25T00:27:32;3.80;;;3.40;;
55350;SDS011;62194;49.480;10.986;2023-04-25T00:27:37;3.75;;;3.35;;
55350;SDS011;62194;49.480;10.986;2023-04-25T00:27:43;3.58;;;3.25;;
55350;SDS011;62194;49.480;10.986;2023-04-25T00:27:49;3.43;;;3.10;;
55350;SDS011;62194;49.480;10.986;2023-04-25T00:27:54;3.47;;;3.00;;
55350;SDS011;62194;49.480;10.986;2023-04-25T00:28:00;3.40;;;2.90;;
55350;SDS011;62194;49.480;10.986;2023-04-25T00:28:05;3.90;;;2.80;;
55350;SDS011;62194;49.480;10.986;2023-04-25T00:28:13;4.20;;;2.80;;
55350;SDS011;62194;49.480;10.986;2023-04-25T00:28:18;4.32;;;2.80;;
55350;SDS011;62194;49.480;10.986;2023-04-25T00:28:24;4.50;;;2.90;;
55350;SDS011;62194;49.480;10.986;2023-04-25T00:28:29;4.63;;;3.00;;
55350;SDS011;62194;49.480;10.986;2023-04-25T00:28:34;4.03;;;3.00;;
55350;SDS011;62194;49.480;10.986;2023-04-25T00:28:40;4.07;;;3.17;;
55350;SDS011;62194;49.480;10.986;2023-04-25T00:28:45;4.10;;;3.22;;
55350;SDS011;62194;49.480;10.986;2023-04-25T00:28:51;3.78;;;3.20;;
55350;SDS011;62194;49.480;10.986;2023-04-25T00:28:56;3.83;;;3.17;;
55350;SDS011;62194;49.480;10.986;2023-04-25T00:29:02;3.77;;;3.13;;
55350;SDS011;62194;49.480;10.986;2023-04-25T00:29:07;3.78;;;3.03;;
55350;SDS011;62194;49.480;10.986;2023-04-25T00:29:12;3.90;;;2.90;;
55350;SDS011;62194;49.480;10.986;2023-04-25T00:29:17;3.77;;;2.80;;
55350;SDS011;62194;49.480;10.986;2023-04-25T00:29:23;3.97;;;2.85;;
55350;SDS011;62194;49.480;10.986;2023-04-25T00:29:28;3.90;;;3.00;;
55350;SDS011;62194;49.480;10.986;2023-04-25T00:29:33;4.03;;;3.20;;
55350;SDS011;62194;49.480;10.986;2023-04-25T00:29:39;3.87;;;3.20;;
55350;SDS011;62194;49.480;10.986;2023-04-25T00:29:44;3.78;;;3.17;;
55350;SDS011;62194;49.480;10.986;2023-04-25T00:29:49;3.97;;;3.43;;
55350;SDS011;62194;49.480;10.986;2023-04-25T00:29:58;3.97;;;3.37;;
55350;SDS011;62194;49.480;10.986;2023-04-25T00:30:03;3.86;;;3.17;;
55350;SDS011;62194;49.480;10.986;2023-04-25T00:30:09;3.83;;;3.10;;
55350;SDS011;62194;49.480;10.986;2023-04-25T00:30:15;3.63;;;3.05;;
55350;SDS011;62194;49.480;10.986;2023-04-25T00:30:20;3.67;;;2.90;;
55350;SDS011;62194;49.480;10.986;2023-04-25T00:30:25;3.30;;;2.83;;
55350;SDS011;62194;49.480;10.986;2023-04-25T00:30:31;3.50;;;2.92;;
55350;SDS011;62194;49.480;10.986;2023-04-25T00:30:36;3.57;;;3.10;;
55350;SDS011;62194;49.480;10.986;2023-04-25T00:30:42;4.10;;;3.10;;
55350;SDS011;62194;49.480;10.986;2023-04-25T00:30:47;4.40;;;3.20;;
55350;SDS011;62194;49.480;10.986;2023-04-25T00:30:53;4.40;;;3.20;;
55350;SDS011;62194;49.480;10.986;2023-04-25T00:30:58;4.67;;;3.20;;
55350;SDS011;62194;49.480;10.986;2023-04-25T00:31:03;4.47;;;3.07;;
55350;SDS011;62194;49.480;10.986;2023-04-25T00:31:08;4.47;;;2.95;;
55350;SDS011;62194;49.480;10.986;2023-04-25T00:31:14;3.63;;;2.83;;
55350;SDS011;62194;49.480;10.986;2023-04-25T00:31:19;3.50;;;2.77;;
55350;SDS011;62194;49.480;10.986;2023-04-25T00:31:24;3.55;;;2.75;;
55350;SDS011;62194;49.480;10.986;2023-04-25T00:31:30;3.67;;;2.90;;
55350;SDS011;62194;49.480;10.986;2023-04-25T00:31:35;3.73;;;2.93;;
55350;SDS011;62194;49.480;10.986;2023-04-25T00:31:40;3.60;;;3.00;;
55350;SDS011;62194;49.480;10.986;2023-04-25T00:31:46;3.60;;;3.10;;
55350;SDS011;62194;49.480;10.986;2023-04-25T00:31:51;3.67;;;3.07;;
55350;SDS011;62194;49.480;10.986;2023-04-25T00:31:56;4.53;;;3.20;;
55350;SDS011;62194;49.480;10.986;2023-04-25T00:32:01;4.15;;;3.00;;
55350;SDS011;62194;49.480;10.986;2023-04-25T00:32:07;4.23;;;2.97;;
55350;SDS011;62194;49.480;10.986;2023-04-25T00:32:12;4.20;;;2.90;;
55350;SDS011;62194;49.480;10.986;2023-04-25T00:32:17;4.23;;;2.93;;
55350;SDS011;62194;49.480;10.986;2023-04-25T00:32:22;3.88;;;2.95;;
55350;SDS011;62194;49.480;10.986;2023-04-25T00:32:28;3.33;;;2.90;;
55350;SDS011;62194;49.480;10.986;2023-04-25T00:32:33;3.53;;;3.00;;
55350;SDS011;62194;49.480;10.986;2023-04-25T00:32:38;3.78;;;3.10;;
55350;SDS011;62194;49.480;10.986;2023-04-25T00:32:43;3.93;;;3.10;;
55350;SDS011;62194;49.480;10.986;2023-04-25T00:32:49;4.20;;;3.00;;
55350;SDS011;62194;49.480;10.986;2023-04-25T00:32:54;4.20;;;3.00;;
55350;SDS011;62194;49.480;10.986;2023-04-25T00:33:00;4.37;;;3.00;;
55350;SDS011;62194;49.480;10.986;2023-04-25T00:33:05;4.07;;;2.90;;
55350;SDS011;62194;49.480;10.986;2023-04-25T00:33:11;3.83;;;2.88;;
55350;SDS011;62194;49.480;10.986;2023-04-25T00:33:16;3.40;;;2.90;;
55350;SDS011;62194;49.480;10.986;2023-04-25T00:33:21;3.43;;;3.03;;
55350;SDS011;62194;49.480;10.986;2023-04-25T00:33:27;3.23;;;2.93;;
55350;SDS011;62194;49.480;10.986;2023-04-25T00:33:32;3.10;;;2.80;;
55350;SDS011;62194;49.480;10.986;2023-04-25T00:33:37;2.87;;;2.63;;
55350;SDS011;62194;49.480;10.986;2023-04-25T00:33:43;3.00;;;2.70;;
55350;SDS011;62194;49.480;10.986;2023-04-25T00:33:48;3.00;;;2.70;;
55350;SDS011;62194;49.480;10.986;2023-04-25T00:33:53;3.00;;;2.67;;
55350;SDS011;62194;49.480;10.986;2023-04-25T00:33:59;3.23;;;2.83;;
55350;SDS011;62194;49.480;10.986;2023-04-25T00:34:05;3.55;;;3.10;;
55350;SDS011;62194;49.480;10.986;2023-04-25T00:34:12;3.67;;;3.10;;
55350;SDS011;62194;49.480;10.986;2023-04-25T00:34:17;3.67;;;3.07;;
55350;SDS011;62194;49.480;10.986;2023-04-25T00:34:22;3.67;;;3.05;;
55350;SDS011;62194;49.480;10.986;2023-04-25T00:34:27;3.50;;;2.97;;